Time;durP1;ratioP1;P1;durP2;ratioP2;P2;SDS_P1;SDS_P2;PMS_P1;PMS_P2;Temp;Humidity;BMP_temperature;BMP_pressure;BME280_temperature;BME280_humidity;BME280_pressure;Samples;Min_cycle;Max_cycle;Signal;HPM_P1;HPM_P2
2022/11/28 00:01:06;;;;;;;2.30;0.50;;;7.20;92.50;;;;;;5112774;28;20051;-78
2022/11/28 00:03:32;;;;;;;0.98;0.65;;;7.30;92.50;;;;;;5077591;28;20039;-77
2022/11/28 00:06:06;;;;;;;1.30;0.90;;;7.30;92.50;;;;;;5113181;28;20396;-79
2022/11/28 00:08:33;;;;;;;1.30;0.88;;;7.20;92.50;;;;;;5093493;28;20027;-79
2022/11/28 00:11:06;;;;;;;0.88;0.68;;;7.30;92.50;;;;;;5094415;28;20040;-78
2022/11/28 00:13:31;;;;;;;1.35;0.77;;;7.20;92.50;;;;;;5078145;28;20032;-78
2022/11/28 00:15:59;;;;;;;0.60;0.52;;;7.20;92.50;;;;;;5095180;28;20088;-81
2022/11/28 00:18:25;;;;;;;1.45;0.80;;;7.30;92.50;;;;;;5077747;28;20093;-79
2022/11/28 00:20:51;;;;;;;0.65;0.65;;;7.30;92.50;;;;;;5094804;28;20470;-81
2022/11/28 00:23:17;;;;;;;1.58;0.70;;;7.30;92.50;;;;;;5077139;28;20084;-80
2022/11/28 00:25:42;;;;;;;0.70;0.70;;;7.30;92.50;;;;;;5094944;28;20044;-79
2022/11/28 00:28:08;;;;;;;0.73;0.65;;;7.30;92.50;;;;;;5096564;28;20090;-81
2022/11/28 00:30:36;;;;;;;0.75;0.63;;;7.30;92.50;;;;;;5094880;28;20032;-81
2022/11/28 00:33:02;;;;;;;1.02;0.68;;;7.30;92.50;;;;;;5095351;28;20043;-81
2022/11/28 00:35:28;;;;;;;1.25;0.80;;;7.30;92.50;;;;;;5112575;28;20096;-81
2022/11/28 00:37:53;;;;;;;0.90;0.70;;;7.30;92.50;;;;;;5077326;28;20040;-81
2022/11/28 00:40:20;;;;;;;0.63;0.50;;;7.30;92.50;;;;;;5077695;28;20044;-81
2022/11/28 00:42:45;;;;;;;0.80;0.60;;;7.50;92.50;;;;;;5094166;28;20027;-79
2022/11/28 00:45:11;;;;;;;0.85;0.60;;;7.40;92.50;;;;;;5112220;28;20395;-79
2022/11/28 00:47:36;;;;;;;0.90;0.60;;;7.40;92.40;;;;;;5112587;28;20060;-79
2022/11/28 00:50:02;;;;;;;0.98;0.75;;;7.40;92.40;;;;;;5112600;28;20042;-79
2022/11/28 00:52:30;;;;;;;0.88;0.60;;;7.40;92.40;;;;;;5112081;28;20040;-79
2022/11/28 00:54:56;;;;;;;0.80;0.47;;;7.40;92.40;;;;;;5060607;28;20040;-79
2022/11/28 00:57:21;;;;;;;0.98;0.75;;;7.40;92.40;;;;;;5093822;28;20040;-79
2022/11/28 00:59:47;;;;;;;0.90;0.63;;;7.40;92.40;;;;;;5093735;28;20450;-79
2022/11/28 01:02:13;;;;;;;1.35;0.85;;;7.50;92.40;;;;;;5113295;28;20039;-79
2022/11/28 01:04:38;;;;;;;0.77;0.60;;;7.50;92.40;;;;;;5097309;28;20043;-79
2022/11/28 01:07:04;;;;;;;0.73;0.50;;;7.50;92.70;;;;;;5080271;28;20497;-79
2022/11/28 01:09:29;;;;;;;1.27;0.85;;;7.50;92.40;;;;;;5115714;28;20043;-79
2022/11/28 01:11:55;;;;;;;2.25;0.90;;;7.60;92.40;;;;;;5097355;28;20036;-79
2022/11/28 01:14:23;;;;;;;0.98;0.55;;;7.60;92.30;;;;;;5097551;28;20559;-78
2022/11/28 01:16:49;;;;;;;1.60;1.05;;;7.60;92.30;;;;;;5097030;28;20066;-79
2022/11/28 01:19:15;;;;;;;0.65;0.60;;;7.60;92.30;;;;;;5097099;28;20475;-78
2022/11/28 01:21:41;;;;;;;0.80;0.63;;;7.60;92.50;;;;;;5115103;28;20046;-79
2022/11/28 01:24:06;;;;;;;0.85;0.70;;;7.70;92.20;;;;;;5096762;28;20511;-78
2022/11/28 01:26:32;;;;;;;1.25;0.88;;;7.80;92.20;;;;;;5097010;28;20038;-78
2022/11/28 01:28:59;;;;;;;2.15;1.00;;;7.80;92.20;;;;;;5115497;28;20043;-78
2022/11/28 01:31:26;;;;;;;2.40;1.10;;;7.80;92.10;;;;;;5080108;28;20035;-79
2022/11/28 01:33:52;;;;;;;1.95;1.20;;;7.90;92.10;;;;;;5080048;28;20052;-79
2022/11/28 01:36:20;;;;;;;2.30;1.30;;;8.00;92.00;;;;;;5115343;28;20046;-79
2022/11/28 01:38:46;;;;;;;1.80;1.17;;;8.00;92.00;;;;;;5096849;28;20410;-78
2022/11/28 01:41:12;;;;;;;1.38;1.10;;;8.10;91.90;;;;;;5097339;28;20036;-78
2022/11/28 01:43:57;;;;;;;1.40;0.98;;;8.10;91.90;;;;;;5115291;28;20055;-79
2022/11/28 01:46:22;;;;;;;1.13;0.98;;;8.10;91.90;;;;;;5114407;28;20058;-78
2022/11/28 01:48:49;;;;;;;1.70;1.10;;;8.10;91.80;;;;;;5096667;28;20559;-78
2022/11/28 01:51:14;;;;;;;1.58;1.17;;;8.10;91.80;;;;;;5115238;28;20051;-78
2022/11/28 01:53:44;;;;;;;1.27;0.90;;;8.20;91.90;;;;;;5096388;28;20425;-78
2022/11/28 01:56:16;;;;;;;1.27;0.80;;;8.20;91.90;;;;;;5080322;28;20082;-76
2022/11/28 01:58:45;;;;;;;0.93;0.80;;;8.20;91.80;;;;;;5115108;28;20043;-78
2022/11/28 02:01:11;;;;;;;1.13;0.70;;;8.20;91.80;;;;;;5096451;28;20051;-78
2022/11/28 02:03:44;;;;;;;1.30;0.90;;;8.20;91.80;;;;;;5114953;28;20043;-79
2022/11/28 02:06:12;;;;;;;0.80;0.80;;;8.20;91.80;;;;;;5114572;28;20042;-79
2022/11/28 02:08:38;;;;;;;1.38;0.70;;;8.30;91.80;;;;;;5079710;28;20391;-78
2022/11/28 02:11:35;;;;;;;1.65;0.70;;;8.30;91.80;;;;;;5114492;28;20039;-78
2022/11/28 02:14:30;;;;;;;1.13;0.82;;;8.20;91.80;;;;;;5076394;28;20502;-78
2022/11/28 02:17:18;;;;;;;1.33;0.95;;;8.20;91.90;;;;;;5096192;28;20043;-78
2022/11/28 02:20:20;;;;;;;2.25;1.30;;;8.20;91.90;;;;;;5113908;28;20055;-78
2022/11/28 02:23:01;;;;;;;1.60;1.20;;;8.20;91.90;;;;;;5095901;28;20105;-78
2022/11/28 02:25:54;;;;;;;3.00;1.20;;;8.30;91.90;;;;;;5114264;28;20403;-78
2022/11/28 02:28:51;;;;;;;1.42;1.10;;;8.20;91.90;;;;;;5114926;28;20420;-78
2022/11/28 02:31:32;;;;;;;2.78;1.40;;;8.10;91.90;;;;;;5098960;28;20488;-78
2022/11/28 02:34:02;;;;;;;2.55;1.38;;;8.10;91.90;;;;;;5095843;28;20080;-78
2022/11/28 02:36:33;;;;;;;2.05;1.20;;;8.10;92.00;;;;;;5114302;28;20122;-78
2022/11/28 02:39:15;;;;;;;1.88;1.20;;;8.00;92.00;;;;;;5114472;28;20048;-78
2022/11/28 02:41:56;;;;;;;3.13;1.13;;;8.10;92.10;;;;;;5114288;28;20050;-78
2022/11/28 02:44:35;;;;;;;1.57;1.00;;;8.00;92.10;;;;;;5114128;28;20127;-78
2022/11/28 02:47:07;;;;;;;2.30;1.42;;;8.00;92.10;;;;;;5096943;28;20281;-78
2022/11/28 02:49:40;;;;;;;2.25;1.17;;;8.00;92.10;;;;;;5113853;28;20047;-78
2022/11/28 02:52:13;;;;;;;2.70;1.38;;;8.00;92.10;;;;;;5113997;28;20063;-78
2022/11/28 02:54:41;;;;;;;3.25;1.70;;;8.00;92.40;;;;;;5096030;28;20039;-78
2022/11/28 02:57:07;;;;;;;2.10;1.42;;;8.00;92.10;;;;;;5113523;28;20039;-78
2022/11/28 02:59:47;;;;;;;2.58;1.45;;;8.00;92.20;;;;;;5095253;28;20402;-78
2022/11/28 03:02:27;;;;;;;2.45;1.50;;;8.00;92.20;;;;;;5095594;28;20049;-78
2022/11/28 03:05:09;;;;;;;1.50;1.20;;;8.00;92.20;;;;;;5111503;28;20493;-78
2022/11/28 03:07:55;;;;;;;1.70;1.27;;;8.00;92.30;;;;;;5114041;28;20416;-78
2022/11/28 03:10:48;;;;;;;5.57;1.52;;;8.00;92.30;;;;;;5095413;28;20513;-78
2022/11/28 03:13:45;;;;;;;2.45;1.20;;;8.00;92.30;;;;;;5098343;28;20040;-78
2022/11/28 03:16:29;;;;;;;1.50;1.10;;;8.00;92.30;;;;;;5095075;28;20039;-78
2022/11/28 03:19:16;;;;;;;2.15;1.30;;;8.00;92.30;;;;;;5113754;28;20382;-78
2022/11/28 03:22:06;;;;;;;1.40;1.17;;;8.00;92.30;;;;;;5113382;28;20045;-77
2022/11/28 03:24:53;;;;;;;2.10;0.95;;;8.00;92.30;;;;;;5097316;28;20101;-79
2022/11/28 03:27:29;;;;;;;1.70;1.17;;;8.00;92.30;;;;;;5113243;28;20102;-78
2022/11/28 03:29:59;;;;;;;1.25;1.02;;;8.00;92.30;;;;;;5111288;28;20040;-78
2022/11/28 03:32:30;;;;;;;1.65;1.23;;;8.10;92.30;;;;;;5111789;28;20484;-78
2022/11/28 03:35:02;;;;;;;1.58;1.17;;;8.10;92.30;;;;;;5093083;28;20046;-78
2022/11/28 03:37:34;;;;;;;1.65;1.23;;;8.10;92.30;;;;;;5094853;28;20509;-78
2022/11/28 03:40:07;;;;;;;2.40;1.30;;;8.20;92.30;;;;;;5113126;28;20051;-78
2022/11/28 03:42:38;;;;;;;1.05;0.80;;;8.00;92.30;;;;;;5095213;28;20118;-78
2022/11/28 03:45:17;;;;;;;1.60;1.10;;;8.10;92.30;;;;;;5113518;28;20126;-78
2022/11/28 03:47:47;;;;;;;1.73;0.80;;;8.10;92.30;;;;;;5113107;28;20039;-78
2022/11/28 03:50:19;;;;;;;1.20;0.73;;;8.10;92.30;;;;;;5095227;28;20548;-78
2022/11/28 03:52:55;;;;;;;1.95;1.23;;;8.00;92.30;;;;;;5094696;28;20127;-78
2022/11/28 03:55:27;;;;;;;1.10;1.00;;;8.10;92.40;;;;;;5112963;28;20436;-78
2022/11/28 03:58:04;;;;;;;1.50;0.98;;;8.10;92.40;;;;;;5095103;28;20093;-78
2022/11/28 04:00:34;;;;;;;1.20;0.90;;;8.10;92.40;;;;;;5094716;28;20040;-78
2022/11/28 04:03:12;;;;;;;1.50;0.93;;;8.10;92.40;;;;;;5095243;28;20074;-78
2022/11/28 04:06:09;;;;;;;2.80;1.23;;;8.10;92.50;;;;;;5094664;28;20047;-78
2022/11/28 04:08:40;;;;;;;1.35;0.90;;;8.10;92.50;;;;;;5112563;28;20114;-79
2022/11/28 04:11:12;;;;;;;1.25;1.00;;;8.00;92.40;;;;;;5077746;28;20051;-78
2022/11/28 04:13:51;;;;;;;1.60;1.00;;;8.10;92.50;;;;;;5094955;28;20122;-79
2022/11/28 04:16:33;;;;;;;1.88;1.02;;;8.00;92.50;;;;;;5094240;28;20048;-79
2022/11/28 04:19:14;;;;;;;2.08;1.00;;;8.10;92.50;;;;;;5110488;28;20145;-79
2022/11/28 04:21:54;;;;;;;1.40;1.00;;;8.10;92.50;;;;;;5112880;28;20051;-79
2022/11/28 04:24:25;;;;;;;2.47;1.40;;;8.10;92.50;;;;;;5112511;28;20495;-78
2022/11/28 04:26:57;;;;;;;1.50;1.20;;;8.10;92.80;;;;;;5094126;28;20050;-79
2022/11/28 04:29:23;;;;;;;;;;;8.10;92.50;;;;;;5095051;28;20496;-79
2022/11/28 04:31:54;;;;;;;1.02;0.93;;;8.10;92.50;;;;;;5094084;28;19915;-79
2022/11/28 04:34:22;;;;;;;1.60;1.20;;;8.10;92.50;;;;;;5077135;28;20048;-79
2022/11/28 04:36:49;;;;;;;1.85;1.23;;;8.00;92.50;;;;;;5093231;28;20060;-79
2022/11/28 04:39:18;;;;;;;1.65;1.05;;;8.10;92.50;;;;;;5094973;28;20054;-79
2022/11/28 04:42:03;;;;;;;1.35;1.13;;;8.10;92.50;;;;;;5093911;28;20044;-79
2022/11/28 04:44:40;;;;;;;1.20;0.90;;;8.10;92.60;;;;;;5096217;28;20039;-79
2022/11/28 04:47:06;;;;;;;1.13;0.90;;;8.20;92.60;;;;;;5112550;28;20471;-79
2022/11/28 04:49:32;;;;;;;1.75;1.02;;;8.00;92.50;;;;;;5112408;28;20048;-79
2022/11/28 04:52:06;;;;;;;1.55;1.10;;;8.10;92.60;;;;;;5112401;28;20089;-79
2022/11/28 04:54:41;;;;;;;1.55;1.17;;;8.10;92.60;;;;;;5077360;28;20505;-79
2022/11/28 04:57:29;;;;;;;1.48;0.98;;;8.10;92.60;;;;;;5093866;28;20043;-79
2022/11/28 04:59:56;;;;;;;1.63;1.13;;;8.10;92.60;;;;;;5112068;28;20063;-79
2022/11/28 05:02:23;;;;;;;1.05;0.80;;;8.10;92.60;;;;;;5112241;28;20035;-79
2022/11/28 05:04:51;;;;;;;1.45;1.00;;;8.10;92.60;;;;;;5092018;28;20040;-79
2022/11/28 05:07:17;;;;;;;1.05;0.90;;;8.10;92.60;;;;;;5095040;28;20118;-79
2022/11/28 05:09:43;;;;;;;1.02;0.85;;;8.10;92.60;;;;;;5093929;28;20075;-79
2022/11/28 05:12:08;;;;;;;0.90;0.90;;;8.00;92.60;;;;;;5093978;28;20046;-79
2022/11/28 05:14:34;;;;;;;0.75;0.65;;;8.10;92.70;;;;;;5112735;28;20391;-79
2022/11/28 05:17:00;;;;;;;1.73;1.10;;;8.10;92.70;;;;;;5112302;28;20046;-79
2022/11/28 05:19:25;;;;;;;1.02;0.85;;;8.10;92.70;;;;;;5093766;28;20124;-79
2022/11/28 05:21:52;;;;;;;1.60;0.98;;;8.10;92.70;;;;;;5112117;28;20047;-79
2022/11/28 05:24:18;;;;;;;1.42;1.00;;;8.10;92.70;;;;;;5094441;28;20075;-79
2022/11/28 05:26:43;;;;;;;1.75;1.10;;;8.10;92.70;;;;;;5112366;28;20116;-79
2022/11/28 05:29:09;;;;;;;1.05;0.80;;;8.10;92.70;;;;;;5076932;28;20081;-79
2022/11/28 05:31:36;;;;;;;1.27;1.10;;;8.10;92.70;;;;;;5093789;28;20036;-78
2022/11/28 05:34:02;;;;;;;0.88;0.80;;;8.10;92.70;;;;;;5112227;28;20089;-79
2022/11/28 05:36:27;;;;;;;1.23;0.80;;;8.10;92.70;;;;;;5093551;28;20048;-79
2022/11/28 05:38:53;;;;;;;0.85;0.75;;;8.10;92.70;;;;;;5111878;28;20134;-79
2022/11/28 05:41:22;;;;;;;1.52;1.00;;;8.10;92.80;;;;;;5093536;28;20122;-79
2022/11/28 05:43:48;;;;;;;0.93;0.80;;;8.10;92.80;;;;;;5111664;28;20040;-79
2022/11/28 05:46:14;;;;;;;1.75;1.15;;;8.10;92.80;;;;;;5094104;28;20122;-78
2022/11/28 05:48:39;;;;;;;1.75;1.08;;;8.20;92.80;;;;;;5112593;28;20527;-79
2022/11/28 05:51:05;;;;;;;1.60;1.10;;;8.10;92.80;;;;;;5097162;28;20027;-78
2022/11/28 05:53:31;;;;;;;1.48;0.93;;;8.10;92.80;;;;;;5115326;28;20043;-78
2022/11/28 05:55:57;;;;;;;1.40;1.10;;;8.10;92.80;;;;;;5115799;28;20055;-78
2022/11/28 05:58:23;;;;;;;1.33;1.00;;;8.10;92.80;;;;;;5115785;28;20044;-78
2022/11/28 06:00:48;;;;;;;1.65;1.00;;;8.20;92.80;;;;;;5115154;28;20560;-78
2022/11/28 06:03:14;;;;;;;1.25;0.95;;;8.10;92.80;;;;;;5096812;28;20051;-78
2022/11/28 06:05:42;;;;;;;0.93;0.85;;;8.10;92.80;;;;;;5097052;28;20036;-78
2022/11/28 06:08:10;;;;;;;1.08;0.80;;;8.10;92.80;;;;;;5096737;28;20035;-78
2022/11/28 06:10:36;;;;;;;0.95;0.80;;;8.10;92.80;;;;;;5096873;28;20035;-78
2022/11/28 06:13:01;;;;;;;0.85;0.70;;;8.10;92.80;;;;;;5097432;28;20510;-78
2022/11/28 06:15:29;;;;;;;0.65;0.65;;;8.10;92.80;;;;;;5115043;28;20059;-78
2022/11/28 06:17:55;;;;;;;1.13;0.70;;;8.20;92.90;;;;;;5115450;28;20474;-78
2022/11/28 06:20:20;;;;;;;0.73;0.70;;;8.20;92.90;;;;;;5115483;28;20105;-78
2022/11/28 06:22:46;;;;;;;1.35;0.88;;;8.10;92.80;;;;;;5096633;28;20039;-78
2022/11/28 06:25:12;;;;;;;1.33;0.93;;;8.20;92.90;;;;;;5096772;28;20380;-78
2022/11/28 06:27:37;;;;;;;1.02;0.77;;;8.10;92.90;;;;;;5079376;28;20040;-78
2022/11/28 06:30:05;;;;;;;0.70;0.70;;;8.10;92.90;;;;;;5115001;28;20126;-78
2022/11/28 06:32:31;;;;;;;0.95;0.80;;;8.20;92.90;;;;;;5096701;28;20043;-78
2022/11/28 06:34:57;;;;;;;0.90;0.80;;;8.20;92.90;;;;;;5112659;28;20091;-78
2022/11/28 06:37:23;;;;;;;1.33;0.90;;;8.10;92.90;;;;;;5078754;28;20036;-78
2022/11/28 06:39:50;;;;;;;0.88;0.68;;;8.20;92.90;;;;;;5114415;28;20073;-78
2022/11/28 06:42:16;;;;;;;0.90;0.77;;;8.10;92.90;;;;;;5096400;28;20038;-78
2022/11/28 06:44:42;;;;;;;0.75;0.65;;;8.20;92.90;;;;;;5114208;28;20055;-78
2022/11/28 06:47:08;;;;;;;0.82;0.60;;;8.10;92.90;;;;;;5114124;28;20048;-78
2022/11/28 06:49:34;;;;;;;0.75;0.60;;;8.10;92.90;;;;;;5096580;28;20040;-78
2022/11/28 06:52:00;;;;;;;0.50;0.50;;;8.20;93.00;;;;;;5096190;28;20039;-78
2022/11/28 06:54:25;;;;;;;1.05;0.77;;;8.20;93.00;;;;;;5114561;28;20045;-78
2022/11/28 06:56:51;;;;;;;0.68;0.60;;;8.30;93.00;;;;;;5095895;28;20495;-78
2022/11/28 06:59:17;;;;;;;0.93;0.70;;;8.20;93.00;;;;;;5113968;28;20372;-78
2022/11/28 07:01:42;;;;;;;1.08;0.60;;;8.20;93.00;;;;;;5095496;28;20051;-78
2022/11/28 07:04:09;;;;;;;0.73;0.60;;;8.20;93.00;;;;;;5114439;28;20036;-78
2022/11/28 07:06:34;;;;;;;1.15;0.70;;;8.20;93.00;;;;;;5096316;28;20093;-79
2022/11/28 07:09:00;;;;;;;0.70;0.70;;;8.30;93.10;;;;;;5114412;28;20425;-78
2022/11/28 07:11:28;;;;;;;0.82;0.73;;;8.20;93.00;;;;;;5114386;28;20440;-78
2022/11/28 07:13:55;;;;;;;0.80;0.80;;;8.20;93.00;;;;;;5113883;28;20040;-78
2022/11/28 07:16:23;;;;;;;0.80;0.70;;;8.20;93.00;;;;;;5113656;28;20107;-78
2022/11/28 07:18:50;;;;;;;1.15;0.68;;;8.20;93.00;;;;;;5078757;28;20047;-78
2022/11/28 07:21:16;;;;;;;0.90;0.70;;;8.20;93.00;;;;;;5113659;28;20036;-78
2022/11/28 07:23:43;;;;;;;0.85;0.65;;;8.20;93.00;;;;;;5095200;28;20060;-78
2022/11/28 07:26:10;;;;;;;0.60;0.60;;;8.20;93.00;;;;;;5095406;28;20067;-78
2022/11/28 07:28:35;;;;;;;0.70;0.68;;;8.20;93.00;;;;;;5095198;28;20063;-78
2022/11/28 07:31:04;;;;;;;0.93;0.90;;;8.20;93.00;;;;;;5113648;28;20485;-77
2022/11/28 07:33:30;;;;;;;1.00;0.90;;;8.20;93.00;;;;;;5095272;28;20046;-78
2022/11/28 07:36:00;;;;;;;0.50;0.50;;;8.20;93.00;;;;;;5078675;28;20050;-78
2022/11/28 07:38:26;;;;;;;1.03;0.50;;;8.20;93.00;;;;;;5094145;28;20109;-78
2022/11/28 07:40:52;;;;;;;1.00;0.77;;;8.20;93.00;;;;;;5114269;28;20036;-78
2022/11/28 07:43:24;;;;;;;0.80;0.80;;;8.30;93.10;;;;;;5113508;28;20406;-75
2022/11/28 07:45:50;;;;;;;2.17;0.90;;;8.20;93.00;;;;;;5076914;28;20035;-78
2022/11/28 07:48:25;;;;;;;1.50;1.00;;;8.20;93.00;;;;;;5028816;28;20037;-77
2022/11/28 07:50:53;;;;;;;0.88;0.68;;;8.20;93.00;;;;;;5033575;28;20040;-76
2022/11/28 07:53:21;;;;;;;0.88;0.80;;;8.20;93.00;;;;;;5030627;28;20401;-78
2022/11/28 07:55:47;;;;;;;0.95;0.80;;;8.20;93.00;;;;;;5031324;28;20041;-76
2022/11/28 07:58:13;;;;;;;0.60;0.60;;;8.20;93.00;;;;;;5034270;28;20527;-78
2022/11/28 08:00:41;;;;;;;1.27;0.90;;;8.20;93.00;;;;;;5050523;28;20402;-78
2022/11/28 08:03:09;;;;;;;0.70;0.60;;;8.30;93.10;;;;;;5050545;28;20143;-79
2022/11/28 08:06:06;;;;;;;0.80;0.80;;;8.30;93.00;;;;;;5050758;28;20049;-80
2022/11/28 08:11:40;;;;;;;0.93;0.80;;;8.30;93.10;;;;;;4925614;29;20134;-80
2022/11/28 08:14:09;;;;;;;1.52;0.73;;;8.30;93.00;;;;;;4936185;29;20058;-80
2022/11/28 08:16:40;;;;;;;1.17;0.80;;;8.30;93.00;;;;;;4935994;29;20050;-79
2022/11/28 08:19:15;;;;;;;1.00;0.90;;;8.30;93.00;;;;;;4969390;28;20042;-80
2022/11/28 08:21:44;;;;;;;1.00;0.90;;;8.30;93.00;;;;;;4974607;28;20050;-79
2022/11/28 08:31:48;;;;;;;0.70;0.70;;;8.30;93.00;;;;;;4873998;29;20049;-78
2022/11/28 08:34:13;;;;;;;1.05;0.88;;;8.40;93.00;;;;;;4876149;29;20413;-77
2022/11/28 08:36:39;;;;;;;1.48;1.10;;;8.30;93.00;;;;;;4860980;29;20589;-79
2022/11/28 08:39:16;;;;;;;1.10;0.98;;;8.40;93.00;;;;;;4920817;29;20103;-79
2022/11/28 08:41:48;;;;;;;0.70;0.70;;;8.30;93.00;;;;;;4922991;29;20043;-79
2022/11/28 08:44:16;;;;;;;1.30;1.10;;;8.30;93.00;;;;;;4936061;29;20069;-79
2022/11/28 08:46:48;;;;;;;1.08;0.80;;;8.30;93.00;;;;;;4919900;29;20053;-79
2022/11/28 08:49:22;;;;;;;;;;;8.30;93.00;;;;;;4920557;29;20047;-79
2022/11/28 08:51:47;;;;;;;1.35;0.80;;;8.40;93.00;;;;;;4934073;29;20014;-78
2022/11/28 08:54:14;;;;;;;1.20;0.90;;;8.40;93.00;;;;;;4919964;29;20137;-77
2022/11/28 08:56:39;;;;;;;1.65;1.00;;;8.40;93.00;;;;;;4935803;29;20086;-78
2022/11/28 08:59:28;;;;;;;1.05;0.80;;;8.50;93.00;;;;;;4920231;29;20085;-82
2022/11/28 09:02:21;;;;;;;0.80;0.60;;;8.40;93.00;;;;;;4919107;29;20562;-81
2022/11/28 09:04:47;;;;;;;0.80;0.77;;;8.40;93.00;;;;;;4985307;28;20110;-78
2022/11/28 09:07:25;;;;;;;0.85;0.73;;;8.40;93.00;;;;;;5016685;28;20045;-80
2022/11/28 09:09:51;;;;;;;0.90;0.70;;;8.50;93.30;;;;;;5032959;28;20045;-79
2022/11/28 09:12:19;;;;;;;1.42;0.88;;;8.40;93.00;;;;;;5049409;28;20071;-80
2022/11/28 09:15:13;;;;;;;1.00;0.80;;;8.50;93.00;;;;;;5032843;28;20049;-81
2022/11/28 09:17:48;;;;;;;0.80;0.60;;;8.50;93.10;;;;;;5013032;28;20048;-81
2022/11/28 09:20:23;;;;;;;1.08;0.90;;;8.50;93.10;;;;;;5033742;28;20077;-80
2022/11/28 09:23:18;;;;;;;0.90;0.80;;;8.40;93.10;;;;;;5033841;28;20140;-81
2022/11/28 09:25:44;;;;;;;0.68;0.68;;;8.40;93.00;;;;;;5020931;28;20045;-78
2022/11/28 09:28:10;;;;;;;0.70;0.57;;;8.40;93.00;;;;;;5052998;28;20060;-78
2022/11/28 09:30:35;;;;;;;0.77;0.77;;;8.40;93.10;;;;;;5036295;28;20063;-79
2022/11/28 09:33:03;;;;;;;1.33;0.88;;;8.50;93.10;;;;;;5036090;28;20045;-80
2022/11/28 09:35:37;;;;;;;0.65;0.65;;;8.50;93.10;;;;;;5080637;28;20074;-80
2022/11/28 09:38:59;;;;;;;2.35;1.15;;;8.60;93.10;;;;;;5097280;28;20119;-81
2022/11/28 09:45:54;;;;;;;1.45;0.90;;;8.50;93.10;;;;;;5012527;28;20553;-80
2022/11/28 09:48:41;;;;;;;0.98;0.80;;;8.50;93.10;;;;;;4993039;28;20074;-80
2022/11/28 09:51:31;;;;;;;0.98;0.77;;;8.50;93.10;;;;;;4977574;28;20058;-81
2022/11/28 09:54:14;;;;;;;0.63;0.60;;;8.60;93.10;;;;;;4992827;28;20034;-80
2022/11/28 10:00:45;;;;;;;1.00;0.70;;;8.60;93.10;;;;;;4913471;29;20131;-84
2022/11/28 10:10:53;;;;;;;0.50;0.50;;;8.70;93.10;;;;;;4838073;29;20076;-80
2022/11/28 10:27:31;;;;;;;0.98;0.70;;;8.80;93.00;;;;;;4767115;30;20511;-82
2022/11/28 10:30:27;;;;;;;1.00;0.75;;;8.70;93.00;;;;;;4769675;30;20539;-80
2022/11/28 10:52:20;;;;;;;1.77;0.88;;;8.80;93.00;;;;;;4694414;30;20077;-81
2022/11/28 10:56:02;;;;;;;0.55;0.55;;;8.80;93.00;;;;;;4696169;30;20049;-80
2022/11/28 10:58:55;;;;;;;1.30;0.63;;;8.90;93.00;;;;;;4682142;30;20141;-80
2022/11/28 11:05:26;;;;;;;0.73;0.60;;;8.90;93.00;;;;;;4736975;30;20113;-81
2022/11/28 11:08:33;;;;;;;0.83;0.60;;;8.90;93.00;;;;;;4771463;30;20052;-81
2022/11/28 11:12:21;;;;;;;0.82;0.70;;;9.00;93.10;;;;;;4789324;30;20136;-82
2022/11/28 11:29:31;;;;;;;0.75;0.63;;;9.20;93.00;;;;;;4732203;30;20056;-82
2022/11/28 11:32:08;;;;;;;0.77;0.63;;;9.10;93.00;;;;;;4721518;30;20040;-83
2022/11/28 11:35:03;;;;;;;1.13;0.85;;;9.10;93.00;;;;;;4750089;30;20127;-81
2022/11/28 11:40:53;;;;;;;1.10;0.80;;;9.40;93.10;;;;;;4724607;30;20053;-81
2022/11/28 11:43:47;;;;;;;1.17;0.77;;;9.20;93.00;;;;;;4710682;30;20084;-79
2022/11/28 12:23:49;;;;;;;1.00;0.70;;;9.20;93.30;;;;;;4708439;30;20561;-80
2022/11/28 12:36:34;;;;;;;1.33;0.75;;;9.20;93.10;;;;;;5033200;28;20049;-79
2022/11/28 13:24:22;;;;;;;1.15;0.70;;;9.40;93.00;;;;;;4812133;29;20060;-81
2022/11/28 13:27:00;;;;;;;0.95;0.80;;;9.40;93.00;;;;;;4873026;29;20121;-79
2022/11/28 13:29:36;;;;;;;1.50;1.10;;;9.50;93.10;;;;;;4954842;28;20045;-79
2022/11/28 13:32:16;;;;;;;1.10;0.85;;;9.50;93.10;;;;;;5026347;28;20057;-79
2022/11/28 13:34:42;;;;;;;1.33;1.00;;;9.40;93.00;;;;;;5026075;28;20045;-79
2022/11/28 13:37:22;;;;;;;1.30;0.90;;;9.40;93.10;;;;;;5026292;28;20049;-80
2022/11/28 13:39:56;;;;;;;1.27;1.00;;;9.50;93.10;;;;;;5019544;28;20054;-79
2022/11/28 13:42:40;;;;;;;1.90;1.20;;;9.50;93.10;;;;;;5012794;28;20128;-79
2022/11/28 13:45:34;;;;;;;1.42;0.90;;;9.60;93.20;;;;;;4976318;28;20381;-79
2022/11/28 13:58:59;;;;;;;0.82;0.65;;;9.50;93.40;;;;;;4854701;29;20408;-79
2022/11/28 14:01:57;;;;;;;0.80;0.60;;;9.50;93.10;;;;;;4825266;29;20454;-80
2022/11/28 14:04:49;;;;;;;1.38;1.05;;;9.50;93.40;;;;;;4830431;29;20049;-80
2022/11/28 14:07:49;;;;;;;1.75;1.10;;;9.70;93.20;;;;;;4816362;29;20046;-81
2022/11/28 14:15:11;;;;;;;1.40;1.00;;;9.60;93.20;;;;;;4805055;29;20062;-87
2022/11/28 14:18:07;;;;;;;1.63;0.88;;;9.60;93.10;;;;;;4821096;29;20050;-80
2022/11/28 14:20:51;;;;;;;0.90;0.70;;;9.60;93.10;;;;;;4836292;29;20053;-81
2022/11/28 14:23:44;;;;;;;1.05;0.70;;;9.60;93.10;;;;;;4838008;29;20103;-81
2022/11/28 14:26:30;;;;;;;0.80;0.68;;;9.60;93.10;;;;;;4850076;29;20510;-81
2022/11/28 14:28:56;;;;;;;1.85;1.00;;;9.60;93.10;;;;;;4921937;28;20070;-81
2022/11/28 14:31:33;;;;;;;2.17;1.00;;;9.70;93.20;;;;;;4951573;28;20460;-80
2022/11/28 14:34:16;;;;;;;1.23;1.00;;;9.60;93.20;;;;;;5012165;28;20496;-81
2022/11/28 14:36:42;;;;;;;2.17;1.17;;;9.60;93.20;;;;;;5052255;28;20055;-79
2022/11/28 14:39:32;;;;;;;1.55;1.10;;;9.60;93.20;;;;;;5097132;28;20436;-80
2022/11/28 14:42:20;;;;;;;2.55;1.08;;;9.60;93.20;;;;;;5115439;28;20054;-80
2022/11/28 14:45:03;;;;;;;1.60;0.90;;;9.70;93.30;;;;;;5082362;28;20109;-80
2022/11/28 14:47:38;;;;;;;1.20;1.00;;;9.60;93.20;;;;;;5114368;28;20039;-80
2022/11/28 14:50:43;;;;;;;1.95;1.00;;;9.60;93.20;;;;;;5097344;28;20509;-80
2022/11/28 14:53:44;;;;;;;2.10;1.13;;;9.60;93.20;;;;;;5088490;28;20047;-80
2022/11/28 14:56:26;;;;;;;1.38;0.90;;;9.70;93.20;;;;;;5115864;28;20043;-80
2022/11/28 14:58:56;;;;;;;2.70;1.20;;;9.70;93.20;;;;;;5097867;28;20054;-80
2022/11/28 15:01:48;;;;;;;1.75;1.08;;;9.60;93.20;;;;;;5097338;28;20075;-80
2022/11/28 15:04:33;;;;;;;;;;;9.70;93.30;;;;;;5087982;28;20048;-80
2022/11/28 15:07:01;;;;;;;1.00;0.80;;;9.70;93.20;;;;;;5098079;28;19912;-80
2022/11/28 15:09:37;;;;;;;2.20;1.00;;;9.70;93.20;;;;;;5096707;28;20130;-80
2022/11/28 15:12:16;;;;;;;1.90;1.00;;;9.70;93.20;;;;;;5079598;28;20551;-80
2022/11/28 15:14:46;;;;;;;2.38;1.02;;;9.70;93.20;;;;;;5114039;28;20039;-81
2022/11/28 15:17:13;;;;;;;2.05;0.98;;;9.70;93.40;;;;;;5079072;28;20393;-81
2022/11/28 15:19:45;;;;;;;2.33;1.27;;;9.70;93.30;;;;;;5113809;28;20040;-80
2022/11/28 15:22:30;;;;;;;2.83;1.38;;;9.70;93.30;;;;;;5095722;28;20039;-80
2022/11/28 15:24:56;;;;;;;4.88;1.80;;;9.70;93.30;;;;;;5095244;28;20035;-80
2022/11/28 15:27:24;;;;;;;4.15;1.77;;;9.70;93.30;;;;;;5080269;28;20391;-81
2022/11/28 15:29:57;;;;;;;2.88;1.70;;;9.70;93.30;;;;;;5098271;28;20125;-80
2022/11/28 15:32:25;;;;;;;3.55;1.67;;;9.70;93.30;;;;;;5114757;28;20049;-81
2022/11/28 15:34:58;;;;;;;2.38;1.40;;;9.70;93.30;;;;;;5095936;28;20042;-81
2022/11/28 15:37:29;;;;;;;5.20;1.90;;;9.70;93.30;;;;;;5114767;28;20047;-81
2022/11/28 15:39:55;;;;;;;4.88;1.77;;;9.70;93.30;;;;;;5080730;28;20043;-81
2022/11/28 15:42:25;;;;;;;3.70;1.60;;;9.70;93.30;;;;;;5115727;28;20031;-81
2022/11/28 15:44:59;;;;;;;3.45;1.58;;;9.70;93.30;;;;;;5079881;28;20040;-81
2022/11/28 15:47:26;;;;;;;3.45;1.58;;;9.70;93.30;;;;;;5096690;28;20440;-81
2022/11/28 15:50:04;;;;;;;2.60;1.23;;;9.70;93.30;;;;;;5096879;28;20097;-81
2022/11/28 15:52:30;;;;;;;4.72;2.20;;;9.70;93.30;;;;;;5114863;28;20031;-81
2022/11/28 15:54:57;;;;;;;6.47;2.10;;;9.80;93.30;;;;;;5095503;28;20549;-81
2022/11/28 15:57:25;;;;;;;3.92;1.95;;;9.70;93.30;;;;;;5113989;28;20114;-80
2022/11/28 15:59:51;;;;;;;3.67;1.73;;;9.70;93.40;;;;;;5113617;28;20379;-79
2022/11/28 16:02:22;;;;;;;4.70;1.98;;;9.70;93.30;;;;;;5113012;28;20040;-80
2022/11/28 16:04:53;;;;;;;2.80;1.60;;;9.70;93.30;;;;;;5094967;28;20050;-79
2022/11/28 16:07:19;;;;;;;3.45;1.50;;;9.60;93.30;;;;;;5094670;28;20067;-80
2022/11/28 16:09:57;;;;;;;4.03;1.60;;;9.70;93.40;;;;;;5077850;28;20128;-79
2022/11/28 16:12:23;;;;;;;4.47;2.05;;;9.70;93.40;;;;;;5094974;28;20040;-80
2022/11/28 16:14:52;;;;;;;4.65;2.15;;;9.70;93.40;;;;;;5113104;28;20104;-79
2022/11/28 16:17:21;;;;;;;4.75;2.03;;;9.70;93.40;;;;;;5094858;28;20035;-80
2022/11/28 16:19:50;;;;;;;4.80;1.80;;;9.70;93.40;;;;;;5112680;28;20126;-80
2022/11/28 16:22:19;;;;;;;5.03;2.17;;;9.70;93.40;;;;;;5077732;28;20073;-79
2022/11/28 16:24:48;;;;;;;5.50;2.25;;;9.70;93.40;;;;;;5113157;28;20039;-79
2022/11/28 16:27:28;;;;;;;4.43;1.98;;;9.70;93.40;;;;;;5095326;28;20046;-79
2022/11/28 16:29:54;;;;;;;4.28;2.20;;;9.80;93.40;;;;;;5112667;28;20122;-80
2022/11/28 16:32:31;;;;;;;4.45;2.10;;;9.70;93.40;;;;;;5094500;28;20043;-80
2022/11/28 16:34:59;;;;;;;5.90;2.05;;;9.80;93.40;;;;;;5077483;28;20400;-80
2022/11/28 16:37:28;;;;;;;3.47;1.65;;;9.80;93.40;;;;;;5094292;28;20047;-79
2022/11/28 16:40:18;;;;;;;3.72;1.80;;;9.70;93.40;;;;;;5077491;28;20040;-80